createdAt,value
2018-08-06T00:00:15.807Z,2.10
2018-08-06T00:02:44.277Z,2.00
2018-08-06T00:05:12.900Z,2.10
2018-08-06T00:07:41.485Z,2.07
2018-08-06T00:10:13.438Z,2.10
2018-08-06T00:12:42.617Z,2.13
2018-08-06T00:15:12.349Z,1.80
2018-08-06T00:17:41.426Z,1.80
2018-08-06T00:20:11.025Z,2.00
2018-08-06T00:22:40.020Z,2.10
2018-08-06T00:25:10.090Z,2.10
2018-08-06T00:27:38.855Z,1.97
2018-08-06T00:30:09.409Z,2.10
2018-08-06T00:32:38.584Z,2.70
2018-08-06T00:35:07.569Z,2.20
2018-08-06T00:37:36.365Z,2.23
2018-08-06T00:40:05.976Z,2.60
2018-08-06T00:42:34.414Z,2.50
2018-08-06T00:45:02.943Z,2.83
2018-08-06T00:47:31.519Z,2.80
2018-08-06T00:50:00.041Z,2.67
2018-08-06T00:52:28.546Z,2.63
2018-08-06T00:54:57.135Z,2.77
2018-08-06T00:57:25.629Z,2.93
2018-08-06T00:59:54.201Z,2.90
2018-08-06T01:02:22.695Z,3.03
2018-08-06T01:04:50.890Z,3.30
2018-08-06T01:07:19.427Z,2.97
2018-08-06T01:09:47.932Z,3.27
2018-08-06T01:12:16.508Z,3.20
2018-08-06T01:14:44.967Z,3.00
2018-08-06T01:17:13.423Z,3.30
2018-08-06T01:19:42.015Z,3.20
2018-08-06T01:22:10.466Z,2.80
2018-08-06T01:24:39.021Z,2.97
2018-08-06T01:27:07.701Z,2.80
2018-08-06T01:29:36.151Z,3.07
2018-08-06T01:32:04.913Z,3.03
2018-08-06T01:34:33.345Z,3.10
2018-08-06T01:37:01.825Z,2.83
2018-08-06T01:39:30.347Z,3.10
2018-08-06T01:41:58.805Z,2.90
2018-08-06T01:44:27.237Z,2.70
2018-08-06T01:46:55.826Z,2.90
2018-08-06T01:49:24.369Z,2.73
2018-08-06T01:51:52.554Z,2.80
2018-08-06T01:54:21.029Z,2.60
2018-08-06T01:56:49.478Z,2.83
2018-08-06T01:59:17.978Z,2.63
2018-08-06T02:01:46.442Z,2.47
2018-08-06T02:04:15.031Z,2.37
2018-08-06T02:06:43.496Z,2.50
2018-08-06T02:09:12.100Z,2.30
2018-08-06T02:11:40.712Z,2.40
2018-08-06T02:14:09.290Z,2.30
2018-08-06T02:16:37.818Z,2.30
2018-08-06T02:19:06.300Z,2.50
2018-08-06T02:21:34.777Z,2.57
2018-08-06T02:24:03.284Z,2.50
2018-08-06T02:26:31.893Z,2.57
2018-08-06T02:29:00.396Z,2.60
2018-08-06T02:31:28.953Z,2.93
2018-08-06T02:33:57.564Z,2.60
2018-08-06T02:36:26.187Z,3.00
2018-08-06T02:38:54.719Z,2.70
2018-08-06T02:41:23.236Z,2.77
2018-08-06T02:43:51.694Z,3.00
2018-08-06T02:46:20.261Z,3.20
2018-08-06T02:48:48.776Z,2.90
2018-08-06T02:51:17.244Z,3.17
2018-08-06T02:53:45.752Z,3.03
2018-08-06T02:56:14.199Z,3.70
2018-08-06T02:58:42.769Z,2.93
2018-08-06T03:01:11.276Z,3.00
2018-08-06T03:03:39.753Z,3.30
2018-08-06T03:06:08.894Z,3.87
2018-08-06T03:08:37.452Z,3.40
2018-08-06T03:11:06.054Z,3.10
2018-08-06T03:13:34.591Z,3.77
2018-08-06T03:16:03.068Z,3.77
2018-08-06T03:18:31.604Z,3.40
2018-08-06T03:21:00.066Z,3.50
2018-08-06T03:23:28.523Z,3.50
2018-08-06T03:25:57.054Z,3.70
2018-08-06T03:28:25.741Z,3.40
2018-08-06T03:30:54.259Z,3.50
2018-08-06T03:33:22.766Z,3.63
2018-08-06T03:35:51.193Z,3.33
2018-08-06T03:38:19.667Z,3.70
2018-08-06T03:40:48.254Z,3.63
2018-08-06T03:43:16.782Z,3.50
2018-08-06T03:45:45.313Z,3.40
2018-08-06T03:48:13.903Z,3.17
2018-08-06T03:50:42.327Z,3.13
2018-08-06T03:53:10.839Z,3.23
2018-08-06T03:55:39.409Z,3.47
2018-08-06T03:58:07.922Z,3.63
2018-08-06T04:00:36.351Z,3.27
2018-08-06T04:03:04.870Z,3.57
2018-08-06T04:05:33.453Z,3.50
2018-08-06T04:08:01.764Z,3.50
2018-08-06T04:10:30.211Z,3.70
2018-08-06T04:12:58.681Z,3.37
2018-08-06T04:15:27.165Z,3.60
2018-08-06T04:17:55.621Z,3.50
2018-08-06T04:20:24.100Z,3.50
2018-08-06T04:22:52.559Z,3.10
2018-08-06T04:25:21.051Z,3.43
2018-08-06T04:27:49.615Z,3.67
2018-08-06T04:30:18.209Z,3.47
2018-08-06T04:32:47.050Z,3.87
2018-08-06T04:35:16.174Z,3.80
2018-08-06T04:37:45.384Z,3.73
2018-08-06T04:40:14.176Z,3.27
2018-08-06T04:42:43.463Z,3.57
2018-08-06T04:45:12.385Z,3.60
2018-08-06T04:47:41.751Z,3.80
2018-08-06T04:50:11.973Z,3.50
2018-08-06T04:52:40.437Z,3.23
2018-08-06T04:55:11.310Z,3.90
2018-08-06T04:57:39.991Z,3.50
2018-08-06T05:00:11.880Z,3.50
2018-08-06T05:02:40.663Z,3.90
2018-08-06T05:05:10.357Z,3.60
2018-08-06T05:07:38.899Z,3.83
2018-08-06T05:10:07.646Z,3.93
2018-08-06T05:12:36.190Z,3.97
2018-08-06T05:15:05.514Z,3.37
2018-08-06T05:17:34.197Z,3.90
2018-08-06T05:20:02.794Z,3.73
2018-08-06T05:22:31.277Z,4.13
2018-08-06T05:24:59.974Z,3.63
2018-08-06T05:27:28.526Z,3.53
2018-08-06T05:29:57.089Z,3.90
2018-08-06T05:32:25.932Z,3.70
2018-08-06T05:34:54.399Z,3.83
2018-08-06T05:37:22.915Z,3.80
2018-08-06T05:39:51.918Z,4.27
2018-08-06T05:42:20.562Z,4.13
2018-08-06T05:44:49.138Z,4.20
2018-08-06T05:47:17.318Z,4.27
2018-08-06T05:49:45.875Z,3.90
2018-08-06T05:52:14.432Z,4.20
2018-08-06T05:54:42.982Z,4.00
2018-08-06T05:57:11.450Z,4.10
2018-08-06T05:59:39.888Z,4.50
2018-08-06T06:02:08.464Z,4.07
2018-08-06T06:04:36.918Z,4.10
2018-08-06T06:07:05.762Z,4.23
2018-08-06T06:09:35.096Z,4.50
2018-08-06T06:12:03.629Z,4.97
2018-08-06T06:14:32.150Z,4.43
2018-08-06T06:17:01.060Z,4.33
2018-08-06T06:19:29.640Z,4.20
2018-08-06T06:21:58.265Z,4.10
2018-08-06T06:24:27.014Z,3.97
2018-08-06T06:26:55.502Z,4.43
2018-08-06T06:29:23.983Z,4.03
2018-08-06T06:31:52.533Z,4.17
2018-08-06T06:34:20.998Z,3.97
2018-08-06T06:36:49.480Z,4.20
2018-08-06T06:39:18.023Z,3.47
2018-08-06T06:41:46.556Z,4.13
2018-08-06T06:44:15.072Z,4.17
2018-08-06T06:46:43.540Z,4.10
2018-08-06T06:49:12.071Z,4.00
2018-08-06T06:51:40.605Z,4.33
2018-08-06T06:54:09.527Z,4.03
2018-08-06T06:56:37.987Z,3.83
2018-08-06T06:59:06.610Z,3.60
2018-08-06T07:01:35.106Z,3.73
2018-08-06T07:04:03.766Z,4.10
2018-08-06T07:06:32.360Z,3.90
2018-08-06T07:09:00.918Z,3.80
2018-08-06T07:11:29.413Z,4.30
2018-08-06T07:13:58.016Z,3.20
2018-08-06T07:16:26.547Z,3.33
2018-08-06T07:18:55.104Z,3.23
2018-08-06T07:21:23.568Z,3.20
2018-08-06T07:23:52.054Z,3.13
2018-08-06T07:26:20.562Z,2.73
2018-08-06T07:28:49.609Z,3.43
2018-08-06T07:31:18.411Z,2.70
2018-08-06T07:33:46.978Z,2.70
2018-08-06T07:36:15.462Z,3.10
2018-08-06T07:38:43.898Z,2.70
2018-08-06T07:41:12.820Z,2.47
2018-08-06T07:43:41.422Z,2.63
2018-08-06T07:46:10.130Z,2.40
2018-08-06T07:48:38.648Z,2.40
2018-08-06T07:51:07.336Z,2.20
2018-08-06T07:53:35.968Z,2.30
2018-08-06T07:56:04.711Z,2.00
2018-08-06T07:58:32.913Z,2.40
2018-08-06T08:01:01.477Z,1.93
2018-08-06T08:03:30.203Z,2.10
2018-08-06T08:05:58.771Z,1.97
2018-08-06T08:08:27.237Z,2.40
2018-08-06T08:10:55.395Z,1.97
2018-08-06T08:13:24.007Z,2.10
2018-08-06T08:15:52.509Z,2.20
2018-08-06T08:18:21.059Z,2.10
2018-08-06T08:20:49.597Z,2.30
2018-08-06T08:23:18.099Z,2.13
2018-08-06T08:25:46.579Z,1.87
2018-08-06T08:28:15.210Z,2.30
2018-08-06T08:30:43.714Z,2.20
2018-08-06T08:33:12.177Z,2.30
2018-08-06T08:35:40.998Z,1.97
2018-08-06T08:38:09.564Z,2.30
2018-08-06T08:40:38.075Z,2.03
2018-08-06T08:43:06.582Z,2.10
2018-08-06T08:45:35.149Z,2.00
2018-08-06T08:48:03.601Z,1.80
2018-08-06T08:50:32.320Z,2.10
2018-08-06T08:53:00.961Z,2.10
2018-08-06T08:55:29.479Z,2.27
2018-08-06T08:57:57.989Z,1.90
2018-08-06T09:00:26.657Z,2.00
2018-08-06T09:02:55.283Z,2.03
2018-08-06T09:05:23.734Z,2.30
2018-08-06T09:07:53.151Z,2.10
2018-08-06T09:10:21.474Z,2.10
2018-08-06T09:12:50.040Z,2.00
2018-08-06T09:15:22.534Z,2.00
2018-08-06T09:17:51.036Z,2.10
2018-08-06T09:20:19.601Z,2.20
2018-08-06T09:22:48.476Z,2.30
2018-08-06T09:25:16.947Z,2.23
2018-08-06T09:27:46.978Z,2.20
2018-08-06T09:30:17.169Z,2.07
2018-08-06T09:32:46.720Z,2.37
2018-08-06T09:35:16.004Z,1.87
2018-08-06T09:37:44.624Z,2.20
2018-08-06T09:40:16.201Z,1.90
2018-08-06T09:42:45.440Z,2.20
2018-08-06T09:45:15.268Z,2.20
2018-08-06T09:47:45.069Z,2.10
2018-08-06T09:50:14.506Z,2.03
2018-08-06T09:52:44.293Z,2.47
2018-08-06T09:55:17.378Z,2.20
2018-08-06T09:57:46.214Z,2.00
2018-08-06T10:00:21.619Z,2.20
2018-08-06T10:02:51.011Z,2.00
2018-08-06T10:05:20.716Z,2.20
2018-08-06T10:07:48.921Z,2.20
2018-08-06T10:10:17.434Z,2.00
2018-08-06T10:12:46.475Z,2.10
2018-08-06T10:15:15.368Z,2.40
2018-08-06T10:17:44.874Z,2.10
2018-08-06T10:20:15.717Z,2.10
2018-08-06T10:22:44.294Z,2.43
2018-08-06T10:25:13.508Z,2.20
2018-08-06T10:27:42.918Z,2.50
2018-08-06T10:30:14.743Z,2.43
2018-08-06T10:32:43.612Z,2.53
2018-08-06T10:35:13.159Z,2.30
2018-08-06T10:37:41.773Z,2.40
2018-08-06T10:40:13.898Z,2.17
2018-08-06T10:42:43.206Z,2.53
2018-08-06T10:45:13.366Z,2.20
2018-08-06T10:47:42.315Z,2.50
2018-08-06T10:50:10.948Z,2.40
2018-08-06T10:52:39.481Z,2.40
2018-08-06T10:55:09.006Z,2.47
2018-08-06T10:57:38.523Z,2.40
2018-08-06T11:00:16.772Z,2.90
2018-08-06T11:02:45.403Z,2.47
2018-08-06T11:05:14.746Z,2.60
2018-08-06T11:07:43.262Z,2.60
2018-08-06T11:10:14.597Z,2.60
2018-08-06T11:12:43.141Z,2.60
2018-08-06T11:15:14.176Z,2.60
2018-08-06T11:17:42.697Z,2.63
2018-08-06T11:20:12.597Z,3.50
2018-08-06T11:22:41.348Z,2.93
2018-08-06T11:25:11.395Z,2.77
2018-08-06T11:27:39.870Z,3.03
2018-08-06T11:30:15.271Z,2.60
2018-08-06T11:32:44.297Z,3.00
2018-08-06T11:35:13.710Z,2.90
2018-08-06T11:37:42.841Z,2.90
2018-08-06T11:40:18.269Z,2.83
2018-08-06T11:42:47.641Z,2.80
2018-08-06T11:45:23.272Z,2.80
2018-08-06T11:47:51.892Z,3.03
2018-08-06T11:50:20.459Z,2.63
2018-08-06T11:52:49.133Z,3.00
2018-08-06T11:55:17.739Z,2.70
2018-08-06T11:57:46.669Z,2.90
2018-08-06T12:00:25.577Z,2.90
2018-08-06T12:02:54.063Z,2.93
2018-08-06T12:05:25.111Z,3.10
2018-08-06T12:07:53.890Z,3.10
2018-08-06T12:10:22.502Z,2.77
2018-08-06T12:12:51.154Z,2.70
2018-08-06T12:15:19.741Z,2.87
2018-08-06T12:17:48.206Z,2.67
2018-08-06T12:20:19.257Z,2.93
2018-08-06T12:22:48.963Z,2.70
2018-08-06T12:25:18.054Z,3.03
2018-08-06T12:27:47.250Z,3.10
2018-08-06T12:30:19.533Z,2.93
2018-08-06T12:32:48.856Z,2.90
2018-08-06T12:35:17.924Z,2.70
2018-08-06T12:37:47.634Z,2.90
2018-08-06T12:40:17.894Z,3.03
2018-08-06T12:42:46.389Z,2.77
2018-08-06T12:45:15.854Z,2.40
2018-08-06T12:47:45.107Z,2.57
2018-08-06T12:50:14.846Z,2.57
2018-08-06T12:52:43.864Z,2.70
2018-08-06T12:55:14.536Z,2.90
2018-08-06T12:57:43.983Z,2.90
2018-08-06T13:00:27.958Z,2.87
2018-08-06T13:02:56.717Z,2.20
2018-08-06T13:05:25.742Z,2.90
2018-08-06T13:07:54.941Z,2.67
2018-08-06T13:10:23.772Z,2.97
2018-08-06T13:12:52.413Z,2.63
2018-08-06T13:15:20.953Z,2.70
2018-08-06T13:17:49.573Z,2.57
2018-08-06T13:20:18.188Z,2.60
2018-08-06T13:22:46.706Z,2.67
2018-08-06T13:25:15.246Z,2.47
2018-08-06T13:27:43.782Z,2.70
2018-08-06T13:30:14.329Z,2.93
2018-08-06T13:32:43.651Z,2.87
2018-08-06T13:35:13.137Z,2.77
2018-08-06T13:37:41.746Z,3.00
2018-08-06T13:40:10.845Z,2.92
2018-08-06T13:42:39.389Z,2.70
2018-08-06T13:45:08.928Z,2.60
2018-08-06T13:47:37.364Z,2.90
2018-08-06T13:50:06.203Z,2.60
2018-08-06T13:52:34.706Z,2.50
2018-08-06T13:55:03.288Z,2.53
2018-08-06T13:57:31.740Z,2.50
2018-08-06T14:00:00.280Z,3.03
2018-08-06T14:02:28.887Z,2.87
2018-08-06T14:04:57.026Z,2.97
2018-08-06T14:07:25.518Z,2.50
2018-08-06T14:09:54.051Z,2.80
2018-08-06T14:12:22.524Z,2.70
2018-08-06T14:14:51.010Z,2.80
2018-08-06T14:17:19.553Z,2.70
2018-08-06T14:19:48.056Z,2.47
2018-08-06T14:22:16.638Z,2.47
2018-08-06T14:24:45.115Z,2.70
2018-08-06T14:27:13.314Z,2.60
2018-08-06T14:29:41.857Z,2.70
2018-08-06T14:32:10.398Z,2.60
2018-08-06T14:34:38.907Z,2.70
2018-08-06T14:37:07.867Z,2.80
2018-08-06T14:39:36.366Z,2.70
2018-08-06T14:42:04.841Z,2.60
2018-08-06T14:44:33.352Z,3.00
2018-08-06T14:47:01.837Z,2.70
2018-08-06T14:49:30.485Z,2.87
2018-08-06T14:51:59.201Z,2.77
2018-08-06T14:54:27.824Z,2.90
2018-08-06T14:56:56.290Z,3.13
2018-08-06T14:59:24.847Z,2.80
2018-08-06T15:01:53.446Z,2.50
2018-08-06T15:04:22.330Z,2.73
2018-08-06T15:06:50.845Z,2.83
2018-08-06T15:09:19.421Z,2.77
2018-08-06T15:11:47.907Z,2.63
2018-08-06T15:14:16.558Z,2.83
2018-08-06T15:16:45.015Z,2.60
2018-08-06T15:19:13.649Z,3.00
2018-08-06T15:21:42.158Z,2.90
2018-08-06T15:24:10.767Z,2.70
2018-08-06T15:26:39.382Z,3.17
2018-08-06T15:29:07.900Z,2.73
2018-08-06T15:31:36.541Z,3.10
2018-08-06T15:34:05.055Z,3.07
2018-08-06T15:36:33.508Z,3.30
2018-08-06T15:39:01.963Z,2.70
2018-08-06T15:41:30.539Z,2.80
2018-08-06T15:43:59.119Z,3.00
2018-08-06T15:46:27.272Z,3.17
2018-08-06T15:48:55.700Z,3.20
2018-08-06T15:51:24.307Z,3.13
2018-08-06T15:53:52.951Z,3.00
2018-08-06T15:56:21.404Z,3.20
2018-08-06T15:58:50.052Z,3.00
2018-08-06T16:01:18.660Z,3.00
2018-08-06T16:03:47.418Z,2.90
2018-08-06T16:06:15.786Z,3.00
2018-08-06T16:08:44.381Z,2.60
2018-08-06T16:11:12.959Z,2.90
2018-08-06T16:13:41.569Z,3.00
2018-08-06T16:16:10.060Z,3.00
2018-08-06T16:18:38.508Z,2.73
2018-08-06T16:21:07.629Z,3.57
2018-08-06T16:23:36.173Z,2.80
2018-08-06T16:26:04.397Z,3.13
2018-08-06T16:28:32.865Z,2.80
2018-08-06T16:31:01.494Z,3.13
2018-08-06T16:33:30.033Z,2.90
2018-08-06T16:35:58.508Z,2.83
2018-08-06T16:38:27.072Z,3.00
2018-08-06T16:40:55.636Z,3.07
2018-08-06T16:43:24.128Z,3.13
2018-08-06T16:45:52.648Z,2.77
2018-08-06T16:48:21.327Z,3.03
2018-08-06T16:50:49.826Z,2.97
2018-08-06T16:53:18.398Z,2.67
2018-08-06T16:55:47.106Z,3.10
2018-08-06T16:58:15.866Z,2.90
2018-08-06T17:00:44.447Z,3.00
2018-08-06T17:03:13.038Z,2.87
2018-08-06T17:05:41.624Z,3.17
2018-08-06T17:08:10.129Z,3.00
2018-08-06T17:10:38.618Z,3.13
2018-08-06T17:13:07.180Z,2.93
2018-08-06T17:15:35.730Z,2.90
2018-08-06T17:18:03.938Z,3.10
2018-08-06T17:20:32.521Z,3.00
2018-08-06T17:23:01.066Z,2.93
2018-08-06T17:25:29.599Z,3.00
2018-08-06T17:27:58.069Z,3.00
2018-08-06T17:30:26.608Z,3.10
2018-08-06T17:32:55.103Z,3.43
2018-08-06T17:35:23.603Z,3.03
2018-08-06T17:37:52.103Z,3.20
2018-08-06T17:40:20.645Z,3.33
2018-08-06T17:42:49.212Z,2.87
2018-08-06T17:45:19.752Z,3.10
2018-08-06T17:47:48.479Z,2.80
2018-08-06T17:50:18.788Z,3.03
2018-08-06T17:52:48.298Z,2.90
2018-08-06T17:55:18.127Z,3.00
2018-08-06T17:57:47.013Z,3.13
2018-08-06T18:00:16.028Z,3.20
2018-08-06T18:02:44.628Z,3.07
2018-08-06T18:05:14.406Z,2.97
2018-08-06T18:07:43.493Z,3.07
2018-08-06T18:10:13.522Z,2.90
2018-08-06T18:12:42.701Z,3.00
2018-08-06T18:15:11.210Z,3.00
2018-08-06T18:17:40.000Z,3.10
2018-08-06T18:20:12.755Z,3.33
2018-08-06T18:22:40.970Z,3.00
2018-08-06T18:25:11.470Z,3.00
2018-08-06T18:27:41.349Z,2.80
2018-08-06T18:30:12.352Z,3.00
2018-08-06T18:32:41.223Z,3.10
2018-08-06T18:35:11.129Z,3.10
2018-08-06T18:37:39.627Z,3.10
2018-08-06T18:40:08.951Z,3.00
2018-08-06T18:42:37.622Z,3.00
2018-08-06T18:45:10.937Z,3.07
2018-08-06T18:47:39.453Z,3.13
2018-08-06T18:50:09.219Z,3.30
2018-08-06T18:52:37.928Z,3.22
2018-08-06T18:55:08.108Z,3.43
2018-08-06T18:57:36.799Z,3.17
2018-08-06T19:00:07.627Z,2.80
2018-08-06T19:02:36.066Z,3.10
2018-08-06T19:05:04.901Z,3.50
2018-08-06T19:07:33.447Z,3.40
2018-08-06T19:10:01.979Z,3.20
2018-08-06T19:12:36.055Z,3.83
2018-08-06T19:15:05.023Z,3.60
2018-08-06T19:17:37.246Z,3.70
2018-08-06T19:20:05.740Z,3.30
2018-08-06T19:22:34.334Z,3.67
2018-08-06T19:25:08.263Z,3.67
2018-08-06T19:27:36.732Z,3.30
2018-08-06T19:30:06.164Z,3.10
2018-08-06T19:32:34.832Z,3.20
2018-08-06T19:35:03.406Z,3.30
2018-08-06T19:37:37.288Z,3.40
2018-08-06T19:40:07.104Z,3.60
2018-08-06T19:42:41.055Z,3.67
2018-08-06T19:45:10.660Z,3.70
2018-08-06T19:47:39.671Z,3.40
2018-08-06T19:50:13.675Z,3.03
2018-08-06T19:52:42.250Z,3.40
2018-08-06T19:55:16.132Z,3.10
2018-08-06T19:57:44.638Z,3.47
2018-08-06T20:00:14.016Z,3.10
2018-08-06T20:02:43.724Z,3.50
2018-08-06T20:05:12.234Z,3.17
2018-08-06T20:07:40.880Z,2.90
2018-08-06T20:10:11.194Z,3.00
2018-08-06T20:12:39.807Z,3.10
2018-08-06T20:15:11.353Z,3.17
2018-08-06T20:17:39.862Z,3.30
2018-08-06T20:20:09.359Z,3.10
2018-08-06T20:22:37.862Z,3.10
2018-08-06T20:25:09.101Z,2.87
2018-08-06T20:27:37.612Z,3.20
2018-08-06T20:30:08.049Z,3.27
2018-08-06T20:32:36.989Z,3.00
2018-08-06T20:35:08.319Z,3.03
2018-08-06T20:37:37.520Z,3.33
2018-08-06T20:40:06.713Z,2.97
2018-08-06T20:42:36.128Z,2.90
2018-08-06T20:45:06.049Z,3.20
2018-08-06T20:47:34.557Z,3.10
2018-08-06T20:50:03.233Z,2.80
2018-08-06T20:52:31.839Z,3.13
2018-08-06T20:55:00.421Z,2.70
2018-08-06T20:57:29.021Z,2.90
2018-08-06T20:59:57.463Z,3.20
2018-08-06T21:02:26.000Z,2.87
2018-08-06T21:04:54.403Z,3.10
2018-08-06T21:07:22.889Z,2.80
2018-08-06T21:09:51.474Z,3.40
2018-08-06T21:12:20.099Z,2.80
2018-08-06T21:14:48.661Z,2.90
2018-08-06T21:17:17.467Z,3.40
2018-08-06T21:19:46.256Z,3.07
2018-08-06T21:22:14.710Z,3.03
2018-08-06T21:24:43.198Z,3.27
2018-08-06T21:27:11.723Z,3.00
2018-08-06T21:29:40.184Z,3.00
2018-08-06T21:32:08.653Z,3.40
2018-08-06T21:34:37.238Z,3.00
2018-08-06T21:37:05.854Z,3.00
2018-08-06T21:39:34.346Z,3.10
2018-08-06T21:42:02.895Z,3.30
2018-08-06T21:44:31.512Z,3.03
2018-08-06T21:47:00.067Z,3.33
2018-08-06T21:49:28.549Z,2.77
2018-08-06T21:51:57.130Z,3.20
2018-08-06T21:54:25.699Z,2.93
2018-08-06T21:56:54.222Z,2.90
2018-08-06T21:59:22.737Z,3.10
2018-08-06T22:01:51.279Z,3.37
2018-08-06T22:04:19.784Z,3.00
2018-08-06T22:06:47.940Z,3.20
2018-08-06T22:09:16.485Z,3.23
2018-08-06T22:11:44.987Z,3.37
2018-08-06T22:14:13.540Z,3.20
2018-08-06T22:16:41.741Z,3.50
2018-08-06T22:19:11.155Z,3.20
2018-08-06T22:21:39.697Z,2.90
2018-08-06T22:24:08.409Z,3.47
2018-08-06T22:26:37.394Z,3.57
2018-08-06T22:29:06.078Z,3.40
2018-08-06T22:31:34.652Z,3.03
2018-08-06T22:34:03.286Z,3.33
2018-08-06T22:36:33.445Z,3.27
2018-08-06T22:39:01.950Z,3.00
2018-08-06T22:41:30.532Z,3.50
2018-08-06T22:43:59.094Z,3.50
2018-08-06T22:46:27.296Z,3.40
2018-08-06T22:48:55.904Z,3.57
2018-08-06T22:51:24.371Z,3.27
2018-08-06T22:53:52.847Z,3.83
2018-08-06T22:56:20.994Z,3.53
2018-08-06T22:58:49.457Z,3.20
2018-08-06T23:01:18.004Z,3.67
2018-08-06T23:03:46.528Z,3.60
2018-08-06T23:06:15.007Z,3.80
2018-08-06T23:08:43.551Z,3.90
2018-08-06T23:11:12.092Z,3.90
2018-08-06T23:13:40.537Z,3.80
2018-08-06T23:16:09.107Z,3.50
2018-08-06T23:18:37.668Z,3.80
2018-08-06T23:21:06.103Z,3.30
2018-08-06T23:23:34.628Z,3.70
2018-08-06T23:26:03.184Z,3.10
2018-08-06T23:28:31.728Z,3.27
2018-08-06T23:31:00.232Z,3.63
2018-08-06T23:33:28.784Z,3.90
2018-08-06T23:35:57.268Z,3.83
2018-08-06T23:38:25.809Z,4.37
2018-08-06T23:40:54.029Z,3.70
2018-08-06T23:43:22.503Z,3.47
2018-08-06T23:45:50.971Z,3.90
2018-08-06T23:48:19.529Z,3.97
2018-08-06T23:50:47.989Z,3.33
2018-08-06T23:53:16.441Z,3.93
2018-08-06T23:55:44.904Z,3.23
2018-08-06T23:58:13.487Z,3.07
